KHOT/HOT METAR and TAF weather

Enter ICAO airport designator
Station Type Date Time Source
KHOT METAR 2019/06/18 14:53 UTC NOAA

KHOT 181453Z AUTO 00000KT 10SM CLR 26/21 A2993 RMK AO2 SLP129 T02610206 50005


Station Type Date Time Source
KHOT Decoded METAR 2019/06/18 14:53 UTC NOAA

HOT SPRINGS MEMORIAL FIELD, AR, United States (KHOT) 34-29N 093-06W 162M
Jun 18, 2019 - 10:53 AM EDT / 2019.06.18 1453 UTC
Wind: Calm:0
Visibility: 10 mile(s):0
Sky conditions: clear
Temperature: 79.0 F (26.1 C)
Dew Point: 69.1 F (20.6 C)
Relative Humidity: 71%
Pressure (altimeter): 29.93 in. Hg (1013 hPa)
Pressure tendency: 0.01 inches (0.5 hPa) higher than three hours ago
ob: KHOT 181453Z AUTO 00000KT 10SM CLR 26/21 A2993 RMK AO2 SLP129 T02610206 50005
cycle: 15

Station Type Date Time Source
KHOT TAF 2019/06/18 13:18 UTC NOAA

TAF
AMD KHOT 181317Z 1813/1912 VRB03KT P6SM SCT250
FM181400 27003KT P6SM SCT030
FM181600 26006KT P6SM SCT050
TEMPO 1816/1820 BKN050
FM182000 24006KT P6SM BKN050
FM190000 24003KT P6SM SCT250

Example: see airport list